createdAt,value
2019-05-02T00:01:17.854Z,94200.59
2019-05-02T00:06:20.283Z,94195.13
2019-05-02T00:11:22.723Z,94189.73
2019-05-02T00:16:24.603Z,94191.92
2019-05-02T00:21:26.635Z,94188.61
2019-05-02T00:26:28.571Z,94195.06
2019-05-02T00:31:30.561Z,94190.22
2019-05-02T00:36:32.711Z,94184.80
2019-05-02T00:41:38.444Z,94184.75
2019-05-02T00:46:38.618Z,94186.61
2019-05-02T00:51:40.427Z,94187.55
2019-05-02T00:56:44.208Z,94194.83
2019-05-02T01:02:05.216Z,94190.86
2019-05-02T01:07:05.918Z,94201.23
2019-05-02T01:12:08.658Z,94199.22
2019-05-02T01:17:11.623Z,94205.01
2019-05-02T01:22:15.849Z,94206.55
2019-05-02T01:27:25.046Z,94199.58
2019-05-02T01:32:30.126Z,94200.52
2019-05-02T01:37:34.378Z,94198.51
2019-05-02T01:42:39.908Z,94198.39
2019-05-02T01:47:40.220Z,94202.09
2019-05-02T01:52:42.024Z,94208.37
2019-05-02T01:57:44.710Z,94200.89
2019-05-02T02:02:47.673Z,94205.48
2019-05-02T02:07:50.725Z,94198.36
2019-05-02T02:13:03.673Z,94203.77
2019-05-02T02:17:57.595Z,94196.98
2019-05-02T02:23:19.572Z,94194.89
2019-05-02T02:28:21.548Z,94192.98
2019-05-02T02:33:23.333Z,94199.77
2019-05-02T02:38:27.012Z,94201.41
2019-05-02T02:43:34.100Z,94198.59
2019-05-02T02:48:40.317Z,94196.62
2019-05-02T02:53:37.545Z,94204.61
2019-05-02T02:58:45.839Z,94205.38
2019-05-02T03:03:43.445Z,94206.95
2019-05-02T03:08:48.703Z,94207.48
2019-05-02T03:13:53.437Z,94211.04
2019-05-02T03:18:54.946Z,94211.13
2019-05-02T03:24:03.380Z,94220.35
2019-05-02T03:29:01.583Z,94229.52
2019-05-02T03:34:04.216Z,94234.13
2019-05-02T03:39:14.440Z,94240.57
2019-05-02T03:44:12.083Z,94238.69
2019-05-02T03:49:14.690Z,94244.14
2019-05-02T03:54:20.036Z,94252.66
2019-05-02T03:59:20.753Z,94256.80
2019-05-02T04:04:22.889Z,94257.34
2019-05-02T04:09:32.080Z,94258.12
2019-05-02T04:14:38.650Z,94258.83
2019-05-02T04:19:40.124Z,94256.91
2019-05-02T04:24:47.773Z,94267.27
2019-05-02T04:29:45.844Z,94273.84
2019-05-02T04:34:54.552Z,94279.28
2019-05-02T04:39:53.804Z,94276.42
2019-05-02T04:45:13.826Z,94284.92
2019-05-02T04:49:59.091Z,94285.19
2019-05-02T04:55:18.672Z,94291.55
2019-05-02T05:00:11.604Z,94284.87
2019-05-02T05:05:17.260Z,94303.94
2019-05-02T05:10:18.343Z,94299.03
2019-05-02T05:15:35.921Z,94294.16
2019-05-02T05:20:28.040Z,94301.99
2019-05-02T05:25:44.045Z,94310.58
2019-05-02T05:30:49.185Z,94311.55
2019-05-02T05:35:52.533Z,94298.45
2019-05-02T05:40:53.548Z,94308.41
2019-05-02T05:46:06.113Z,94311.58
2019-05-02T05:50:59.156Z,94313.75
2019-05-02T05:56:02.590Z,94321.80
2019-05-02T06:01:09.344Z,94322.35
2019-05-02T06:06:10.265Z,94329.32
2019-05-02T06:11:14.869Z,94327.69
2019-05-02T06:16:16.693Z,94327.29
2019-05-02T06:21:18.843Z,94329.30
2019-05-02T06:26:20.697Z,94329.13
2019-05-02T06:31:22.564Z,94336.22
2019-05-02T06:36:24.504Z,94330.23
2019-05-02T06:41:26.367Z,94328.04
2019-05-02T06:46:29.711Z,94323.76
2019-05-02T06:51:31.882Z,94329.81
2019-05-02T06:56:33.965Z,94326.70
2019-05-02T07:01:36.171Z,94317.22
2019-05-02T07:06:56.037Z,94319.39
2019-05-02T07:11:42.182Z,94327.41
2019-05-02T07:16:56.431Z,94325.05
2019-05-02T07:22:01.725Z,94328.27
2019-05-02T07:27:02.727Z,94311.06
2019-05-02T07:32:05.282Z,94311.06
2019-05-02T07:37:08.401Z,94320.35
2019-05-02T07:42:11.167Z,94326.72
2019-05-02T07:47:13.066Z,94320.91
2019-05-02T07:52:14.936Z,94307.35
2019-05-02T07:57:16.757Z,94314.73
2019-05-02T08:02:20.235Z,94309.41
2019-05-02T08:07:25.873Z,94329.02
2019-05-02T08:12:26.599Z,94329.02
2019-05-02T08:17:28.439Z,94325.20
2019-05-02T08:22:30.411Z,94324.70
2019-05-02T08:27:36.569Z,94323.92
2019-05-02T08:32:37.814Z,94328.58
2019-05-02T08:37:42.957Z,94305.19
2019-05-02T08:42:44.627Z,94314.39
2019-05-02T08:47:46.502Z,94319.27
2019-05-02T08:52:48.333Z,94331.52
2019-05-02T08:57:50.208Z,94341.03
2019-05-02T09:02:52.057Z,94345.64
2019-05-02T09:07:53.949Z,94357.28
2019-05-02T09:12:55.817Z,94355.02
2019-05-02T09:18:02.816Z,94354.84
2019-05-02T09:23:06.999Z,94345.09
2019-05-02T09:28:08.987Z,94332.63
2019-05-02T09:33:11.714Z,94327.50
2019-05-02T09:38:16.323Z,94319.98
2019-05-02T09:43:18.907Z,94329.38
2019-05-02T09:48:24.844Z,94332.23
2019-05-02T09:53:25.679Z,94325.19
2019-05-02T09:58:27.813Z,94317.51
2019-05-02T10:03:31.912Z,94321.23
2019-05-02T10:08:33.789Z,94317.83
2019-05-02T10:13:35.683Z,94314.19
2019-05-02T10:18:37.797Z,94314.52
2019-05-02T10:23:39.584Z,94313.94
2019-05-02T10:28:49.117Z,94306.79
2019-05-02T10:33:45.406Z,94321.03
2019-05-02T10:38:49.120Z,94330.95
2019-05-02T10:43:55.330Z,94317.72
2019-05-02T10:49:01.865Z,94298.23
2019-05-02T10:54:04.393Z,94277.94
2019-05-02T10:59:06.494Z,94289.46
2019-05-02T11:04:13.102Z,94311.02
2019-05-02T11:09:16.751Z,94306.37
2019-05-02T11:14:26.752Z,94296.89
2019-05-02T11:19:31.797Z,94286.53
2019-05-02T11:24:33.856Z,94288.95
2019-05-02T11:29:35.954Z,94264.13
2019-05-02T11:34:38.933Z,94267.97
2019-05-02T11:39:46.687Z,94266.78
2019-05-02T11:44:46.254Z,94310.97
2019-05-02T11:49:55.755Z,94237.86
2019-05-02T11:54:55.135Z,94253.83
2019-05-02T11:59:59.358Z,94231.53
2019-05-02T12:05:01.958Z,94239.14
2019-05-02T12:10:05.634Z,94234.09
2019-05-02T12:15:08.646Z,94234.44
2019-05-02T12:20:11.900Z,94231.20
2019-05-02T12:25:13.905Z,94223.20
2019-05-02T12:30:16.240Z,94235.45
2019-05-02T12:35:18.378Z,94247.53
2019-05-02T12:40:21.709Z,94242.55
2019-05-02T12:45:24.917Z,94255.88
2019-05-02T12:50:26.802Z,94228.25
2019-05-02T12:55:28.679Z,94228.05
2019-05-02T13:00:32.014Z,94221.06
2019-05-02T13:05:34.163Z,94221.36
2019-05-02T13:10:46.753Z,94219.03
2019-05-02T13:15:48.855Z,94202.88
2019-05-02T13:20:52.833Z,94219.94
2019-05-02T13:25:55.106Z,94226.78
2019-05-02T13:31:02.316Z,94214.63
2019-05-02T13:36:05.104Z,94224.25
2019-05-02T13:41:07.306Z,94211.91
2019-05-02T13:46:12.614Z,94211.28
2019-05-02T13:51:15.093Z,94210.12
2019-05-02T13:56:19.292Z,94210.25
2019-05-02T14:01:22.422Z,94216.20
2019-05-02T14:06:29.771Z,94214.08
2019-05-02T14:11:44.781Z,94219.81
2019-05-02T14:16:46.905Z,94229.44
2019-05-02T14:21:48.948Z,94228.19
2019-05-02T14:26:52.573Z,94227.59
2019-05-02T14:31:54.745Z,94219.80
2019-05-02T14:36:59.374Z,94221.34
2019-05-02T14:42:02.056Z,94208.58
2019-05-02T14:47:04.470Z,94213.19
2019-05-02T14:52:07.101Z,94208.34
2019-05-02T14:57:21.504Z,94208.34
2019-05-02T15:02:23.004Z,94200.87
2019-05-02T15:07:26.782Z,94196.05
2019-05-02T15:12:28.909Z,94198.63
2019-05-02T15:17:36.312Z,94200.27
2019-05-02T15:22:37.565Z,94184.30
2019-05-02T15:27:42.509Z,94207.83
2019-05-02T15:32:46.546Z,94206.84
2019-05-02T15:37:48.757Z,94207.72
2019-05-02T15:42:52.115Z,94208.94
2019-05-02T15:47:54.407Z,94200.42
2019-05-02T15:53:14.967Z,94200.77
2019-05-02T15:58:23.757Z,94198.80
2019-05-02T16:03:26.235Z,94205.64
2019-05-02T16:08:30.380Z,94201.58
2019-05-02T16:13:32.452Z,94211.18
2019-05-02T16:18:36.107Z,94212.93
2019-05-02T16:23:42.448Z,94211.30
2019-05-02T16:28:46.345Z,94218.42
2019-05-02T16:33:49.737Z,94221.45
2019-05-02T16:38:52.250Z,94215.26
2019-05-02T16:43:54.529Z,94222.95
2019-05-02T16:48:56.505Z,94234.05
2019-05-02T16:54:01.637Z,94238.16
2019-05-02T16:59:02.566Z,94253.42
2019-05-02T17:04:06.687Z,94257.77
2019-05-02T17:09:11.922Z,94244.17
2019-05-02T17:14:14.298Z,94248.23
2019-05-02T17:19:16.290Z,94259.27
2019-05-02T17:24:24.660Z,94257.11
2019-05-02T17:29:22.703Z,94267.98
2019-05-02T17:34:30.774Z,94267.38
2019-05-02T17:39:31.613Z,94279.20
2019-05-02T17:44:36.384Z,94274.48
2019-05-02T17:49:38.575Z,94282.58
2019-05-02T17:54:42.364Z,94298.53
2019-05-02T17:59:45.838Z,94300.95
2019-05-02T18:04:52.041Z,94299.61
2019-05-02T18:09:56.471Z,94307.13
2019-05-02T18:15:01.448Z,94320.45
2019-05-02T18:20:06.606Z,94322.78
2019-05-02T18:25:08.766Z,94325.39
2019-05-02T18:30:22.859Z,94332.00
2019-05-02T18:35:24.723Z,94319.84
2019-05-02T18:40:29.446Z,94348.12
2019-05-02T18:45:31.868Z,94348.12
2019-05-02T18:50:46.141Z,94356.48
2019-05-02T18:55:44.732Z,94365.56
2019-05-02T19:00:48.067Z,94368.18
2019-05-02T19:05:51.548Z,94377.20
2019-05-02T19:11:04.585Z,94383.67
2019-05-02T19:15:58.196Z,94390.49
2019-05-02T19:21:03.066Z,94397.99
2019-05-02T19:26:09.962Z,94398.64
2019-05-02T19:31:10.896Z,94399.18
2019-05-02T19:36:16.288Z,94407.75
2019-05-02T19:41:17.085Z,94416.16
2019-05-02T19:46:24.614Z,94408.08
2019-05-02T19:51:22.833Z,94414.28
2019-05-02T19:56:24.764Z,94420.64
2019-05-02T20:01:26.938Z,94429.82
2019-05-02T20:06:29.091Z,94424.78
2019-05-02T20:11:32.820Z,94425.75
2019-05-02T20:16:44.081Z,94428.27
2019-05-02T20:21:44.984Z,94436.56
2019-05-02T20:26:52.443Z,94437.02
2019-05-02T20:31:51.681Z,94429.58
2019-05-02T20:36:53.832Z,94430.69
2019-05-02T20:41:56.016Z,94433.22
2019-05-02T20:46:58.012Z,94425.66
2019-05-02T20:52:02.390Z,94435.44
2019-05-02T20:57:04.525Z,94441.87
2019-05-02T21:02:06.454Z,94438.75
2019-05-02T21:07:13.135Z,94440.34
2019-05-02T21:12:15.244Z,94453.19
2019-05-02T21:17:17.454Z,94449.20
2019-05-02T21:22:23.227Z,94456.16
2019-05-02T21:27:25.359Z,94459.75
2019-05-02T21:32:27.394Z,94462.97
2019-05-02T21:37:29.320Z,94460.87
2019-05-02T21:42:31.857Z,94464.84
2019-05-02T21:47:34.001Z,94465.97
2019-05-02T21:52:42.287Z,94475.74
2019-05-02T21:57:44.458Z,94484.55
2019-05-02T22:02:46.682Z,94479.92
2019-05-02T22:07:48.585Z,94483.80
2019-05-02T22:12:51.665Z,94484.89
2019-05-02T22:17:54.957Z,94488.52
2019-05-02T22:22:56.972Z,94491.67
2019-05-02T22:27:59.060Z,94493.96
2019-05-02T22:33:02.804Z,94495.36
2019-05-02T22:38:15.564Z,94490.09
2019-05-02T22:43:17.635Z,94493.67
2019-05-02T22:48:19.684Z,94485.77
2019-05-02T22:53:21.878Z,94483.64
2019-05-02T22:58:24.122Z,94484.66
2019-05-02T23:03:26.153Z,94486.52
2019-05-02T23:08:28.100Z,94485.88
2019-05-02T23:13:31.939Z,94492.20
2019-05-02T23:18:33.924Z,94485.58
2019-05-02T23:23:36.902Z,94491.02
2019-05-02T23:28:43.343Z,94490.40
2019-05-02T23:33:57.512Z,94487.00
2019-05-02T23:39:01.821Z,94479.48
2019-05-02T23:44:05.979Z,94475.21
2019-05-02T23:49:07.940Z,94473.38
2019-05-02T23:54:09.843Z,94474.84
2019-05-02T23:59:12.100Z,94477.17
